sensor_id;sensor_type;location;lat;lon;timestamp;temperature;humidity
39325;DHT22;25037;49.488;9.900;2023-04-22T00:02:14;11.70;69.20
39325;DHT22;25037;49.488;9.900;2023-04-22T00:04:43;11.70;69.30
39325;DHT22;25037;49.488;9.900;2023-04-22T00:07:13;11.60;69.30
39325;DHT22;25037;49.488;9.900;2023-04-22T00:09:40;11.60;69.30
39325;DHT22;25037;49.488;9.900;2023-04-22T00:12:08;11.60;69.30
39325;DHT22;25037;49.488;9.900;2023-04-22T00:14:37;11.60;69.30
39325;DHT22;25037;49.488;9.900;2023-04-22T00:17:04;11.70;69.30
39325;DHT22;25037;49.488;9.900;2023-04-22T00:19:32;11.70;69.30
39325;DHT22;25037;49.488;9.900;2023-04-22T00:21:59;11.70;69.30
39325;DHT22;25037;49.488;9.900;2023-04-22T00:24:26;11.70;69.30
39325;DHT22;25037;49.488;9.900;2023-04-22T00:26:53;11.70;69.30
39325;DHT22;25037;49.488;9.900;2023-04-22T00:29:20;11.70;69.30
39325;DHT22;25037;49.488;9.900;2023-04-22T00:31:46;11.70;69.40
39325;DHT22;25037;49.488;9.900;2023-04-22T00:34:13;11.70;69.30
39325;DHT22;25037;49.488;9.900;2023-04-22T00:36:43;11.60;69.40
39325;DHT22;25037;49.488;9.900;2023-04-22T00:39:10;11.70;69.40
39325;DHT22;25037;49.488;9.900;2023-04-22T00:41:38;11.70;69.40
39325;DHT22;25037;49.488;9.900;2023-04-22T00:44:08;11.70;69.40
39325;DHT22;25037;49.488;9.900;2023-04-22T00:46:36;11.70;69.40
39325;DHT22;25037;49.488;9.900;2023-04-22T00:49:04;11.70;69.40
39325;DHT22;25037;49.488;9.900;2023-04-22T00:51:31;11.70;69.40
39325;DHT22;25037;49.488;9.900;2023-04-22T00:53:58;11.70;69.40
39325;DHT22;25037;49.488;9.900;2023-04-22T00:56:27;11.70;69.40
39325;DHT22;25037;49.488;9.900;2023-04-22T00:58:55;11.60;69.40
39325;DHT22;25037;49.488;9.900;2023-04-22T01:01:22;11.60;69.40
39325;DHT22;25037;49.488;9.900;2023-04-22T01:03:49;11.50;69.40
39325;DHT22;25037;49.488;9.900;2023-04-22T01:06:19;11.50;69.50
39325;DHT22;25037;49.488;9.900;2023-04-22T01:08:45;11.50;69.60
39325;DHT22;25037;49.488;9.900;2023-04-22T01:11:13;11.50;69.70
39325;DHT22;25037;49.488;9.900;2023-04-22T01:13:40;11.50;69.70
39325;DHT22;25037;49.488;9.900;2023-04-22T01:16:08;11.50;69.80
39325;DHT22;25037;49.488;9.900;2023-04-22T01:18:36;11.50;69.80
39325;DHT22;25037;49.488;9.900;2023-04-22T01:21:02;11.50;69.80
39325;DHT22;25037;49.488;9.900;2023-04-22T01:23:29;11.50;69.70
39325;DHT22;25037;49.488;9.900;2023-04-22T01:25:56;11.50;69.70
39325;DHT22;25037;49.488;9.900;2023-04-22T01:28:23;11.50;69.70
39325;DHT22;25037;49.488;9.900;2023-04-22T01:30:50;11.50;69.80
39325;DHT22;25037;49.488;9.900;2023-04-22T01:33:17;11.50;69.80
39325;DHT22;25037;49.488;9.900;2023-04-22T01:35:44;11.50;69.80
39325;DHT22;25037;49.488;9.900;2023-04-22T01:38:11;11.40;69.70
39325;DHT22;25037;49.488;9.900;2023-04-22T01:40:38;11.40;69.90
39325;DHT22;25037;49.488;9.900;2023-04-22T01:43:05;11.40;69.90
39325;DHT22;25037;49.488;9.900;2023-04-22T01:45:32;11.30;70.00
39325;DHT22;25037;49.488;9.900;2023-04-22T01:47:59;11.30;70.10
39325;DHT22;25037;49.488;9.900;2023-04-22T01:50:26;11.30;70.10
39325;DHT22;25037;49.488;9.900;2023-04-22T01:52:53;11.40;70.20
39325;DHT22;25037;49.488;9.900;2023-04-22T01:55:20;11.30;70.20
39325;DHT22;25037;49.488;9.900;2023-04-22T01:57:46;11.30;70.20
39325;DHT22;25037;49.488;9.900;2023-04-22T02:00:13;11.30;70.20
39325;DHT22;25037;49.488;9.900;2023-04-22T02:02:40;11.30;70.30
39325;DHT22;25037;49.488;9.900;2023-04-22T02:05:07;11.30;70.30
39325;DHT22;25037;49.488;9.900;2023-04-22T02:07:34;11.20;70.40
39325;DHT22;25037;49.488;9.900;2023-04-22T02:10:03;11.30;70.40
39325;DHT22;25037;49.488;9.900;2023-04-22T02:12:31;11.20;70.50
39325;DHT22;25037;49.488;9.900;2023-04-22T02:14:58;11.20;70.50
39325;DHT22;25037;49.488;9.900;2023-04-22T02:17:25;11.20;70.50
39325;DHT22;25037;49.488;9.900;2023-04-22T02:19:52;11.20;70.60
39325;DHT22;25037;49.488;9.900;2023-04-22T02:22:19;11.20;70.70
39325;DHT22;25037;49.488;9.900;2023-04-22T02:24:46;11.20;70.70
39325;DHT22;25037;49.488;9.900;2023-04-22T02:27:13;11.20;70.80
39325;DHT22;25037;49.488;9.900;2023-04-22T02:29:40;11.20;70.80
39325;DHT22;25037;49.488;9.900;2023-04-22T02:32:07;11.10;70.70
39325;DHT22;25037;49.488;9.900;2023-04-22T02:34:34;11.20;70.80
39325;DHT22;25037;49.488;9.900;2023-04-22T02:37:02;11.10;70.80
39325;DHT22;25037;49.488;9.900;2023-04-22T02:39:28;11.10;70.70
39325;DHT22;25037;49.488;9.900;2023-04-22T02:41:55;11.10;70.70
39325;DHT22;25037;49.488;9.900;2023-04-22T02:44:22;11.10;70.80
39325;DHT22;25037;49.488;9.900;2023-04-22T02:46:48;11.10;70.80
39325;DHT22;25037;49.488;9.900;2023-04-22T02:49:15;11.10;70.90
39325;DHT22;25037;49.488;9.900;2023-04-22T02:51:42;11.10;70.90
39325;DHT22;25037;49.488;9.900;2023-04-22T02:54:08;11.10;70.90
39325;DHT22;25037;49.488;9.900;2023-04-22T02:56:35;11.10;70.90
39325;DHT22;25037;49.488;9.900;2023-04-22T02:59:02;11.10;71.00
39325;DHT22;25037;49.488;9.900;2023-04-22T03:01:28;11.10;71.00
39325;DHT22;25037;49.488;9.900;2023-04-22T03:03:55;11.10;71.00
39325;DHT22;25037;49.488;9.900;2023-04-22T03:06:22;11.10;71.00
39325;DHT22;25037;49.488;9.900;2023-04-22T03:08:49;11.10;71.10
39325;DHT22;25037;49.488;9.900;2023-04-22T03:11:16;11.10;71.20
39325;DHT22;25037;49.488;9.900;2023-04-22T03:13:42;11.10;71.20
39325;DHT22;25037;49.488;9.900;2023-04-22T03:16:09;11.00;71.20
39325;DHT22;25037;49.488;9.900;2023-04-22T03:18:36;11.00;71.20
39325;DHT22;25037;49.488;9.900;2023-04-22T03:21:03;11.10;71.20
39325;DHT22;25037;49.488;9.900;2023-04-22T03:23:29;11.10;71.20
39325;DHT22;25037;49.488;9.900;2023-04-22T03:25:56;11.10;71.10
39325;DHT22;25037;49.488;9.900;2023-04-22T03:28:23;11.10;71.20
39325;DHT22;25037;49.488;9.900;2023-04-22T03:30:49;11.10;71.10
39325;DHT22;25037;49.488;9.900;2023-04-22T03:33:17;11.10;71.10
39325;DHT22;25037;49.488;9.900;2023-04-22T03:35:46;11.10;71.10
39325;DHT22;25037;49.488;9.900;2023-04-22T03:38:12;11.10;71.10
39325;DHT22;25037;49.488;9.900;2023-04-22T03:40:41;11.10;71.10
39325;DHT22;25037;49.488;9.900;2023-04-22T03:43:07;11.10;71.00
39325;DHT22;25037;49.488;9.900;2023-04-22T03:45:34;11.10;71.10
39325;DHT22;25037;49.488;9.900;2023-04-22T03:48:01;11.10;71.20
39325;DHT22;25037;49.488;9.900;2023-04-22T03:50:27;11.10;71.20
39325;DHT22;25037;49.488;9.900;2023-04-22T03:52:54;11.00;71.20
39325;DHT22;25037;49.488;9.900;2023-04-22T03:55:21;11.10;71.20
39325;DHT22;25037;49.488;9.900;2023-04-22T03:57:47;11.00;71.20
39325;DHT22;25037;49.488;9.900;2023-04-22T04:00:14;11.00;71.20
39325;DHT22;25037;49.488;9.900;2023-04-22T04:02:41;11.00;71.30
39325;DHT22;25037;49.488;9.900;2023-04-22T04:05:08;11.00;71.30
39325;DHT22;25037;49.488;9.900;2023-04-22T04:07:36;11.00;71.30
39325;DHT22;25037;49.488;9.900;2023-04-22T04:10:03;11.00;71.40
39325;DHT22;25037;49.488;9.900;2023-04-22T04:12:30;11.00;71.40
39325;DHT22;25037;49.488;9.900;2023-04-22T04:14:57;11.00;71.50
39325;DHT22;25037;49.488;9.900;2023-04-22T04:17:24;11.00;71.60
39325;DHT22;25037;49.488;9.900;2023-04-22T04:19:52;11.00;71.60
39325;DHT22;25037;49.488;9.900;2023-04-22T04:22:18;11.00;71.60
39325;DHT22;25037;49.488;9.900;2023-04-22T04:24:46;11.00;71.50
39325;DHT22;25037;49.488;9.900;2023-04-22T04:27:13;11.10;71.50
39325;DHT22;25037;49.488;9.900;2023-04-22T04:29:39;11.00;71.50
39325;DHT22;25037;49.488;9.900;2023-04-22T04:32:07;11.10;71.50
39325;DHT22;25037;49.488;9.900;2023-04-22T04:34:35;11.10;71.50
39325;DHT22;25037;49.488;9.900;2023-04-22T04:37:05;11.10;71.50
39325;DHT22;25037;49.488;9.900;2023-04-22T04:39:31;11.10;71.40
39325;DHT22;25037;49.488;9.900;2023-04-22T04:41:59;11.20;71.40
39325;DHT22;25037;49.488;9.900;2023-04-22T04:44:25;11.20;71.30
39325;DHT22;25037;49.488;9.900;2023-04-22T04:46:52;11.20;71.30
39325;DHT22;25037;49.488;9.900;2023-04-22T04:49:20;11.20;71.30
39325;DHT22;25037;49.488;9.900;2023-04-22T04:51:47;11.30;71.30
39325;DHT22;25037;49.488;9.900;2023-04-22T04:54:14;11.30;71.30
39325;DHT22;25037;49.488;9.900;2023-04-22T04:56:40;11.40;71.20
39325;DHT22;25037;49.488;9.900;2023-04-22T04:59:07;11.40;71.10
39325;DHT22;25037;49.488;9.900;2023-04-22T05:01:34;11.50;71.10
39325;DHT22;25037;49.488;9.900;2023-04-22T05:04:01;11.50;70.90
39325;DHT22;25037;49.488;9.900;2023-04-22T05:06:28;11.70;70.90
39325;DHT22;25037;49.488;9.900;2023-04-22T05:08:54;11.70;70.80
39325;DHT22;25037;49.488;9.900;2023-04-22T05:11:21;11.80;70.70
39325;DHT22;25037;49.488;9.900;2023-04-22T05:13:48;11.80;70.70
39325;DHT22;25037;49.488;9.900;2023-04-22T05:16:14;11.90;70.70
39325;DHT22;25037;49.488;9.900;2023-04-22T05:18:41;12.00;70.60
39325;DHT22;25037;49.488;9.900;2023-04-22T05:21:08;12.00;70.60
39325;DHT22;25037;49.488;9.900;2023-04-22T05:23:34;12.00;70.60
39325;DHT22;25037;49.488;9.900;2023-04-22T05:26:01;12.10;70.40
39325;DHT22;25037;49.488;9.900;2023-04-22T05:28:28;12.20;70.30
39325;DHT22;25037;49.488;9.900;2023-04-22T05:30:54;12.30;70.30
39325;DHT22;25037;49.488;9.900;2023-04-22T05:33:21;12.30;70.20
39325;DHT22;25037;49.488;9.900;2023-04-22T05:35:48;12.40;70.00
39325;DHT22;25037;49.488;9.900;2023-04-22T05:38:14;12.40;69.90
39325;DHT22;25037;49.488;9.900;2023-04-22T05:40:41;12.50;69.80
39325;DHT22;25037;49.488;9.900;2023-04-22T05:43:08;12.50;69.70
39325;DHT22;25037;49.488;9.900;2023-04-22T05:45:35;12.60;69.70
39325;DHT22;25037;49.488;9.900;2023-04-22T05:48:01;12.60;69.60
39325;DHT22;25037;49.488;9.900;2023-04-22T05:50:28;12.70;69.50
39325;DHT22;25037;49.488;9.900;2023-04-22T05:53:04;12.80;69.50
39325;DHT22;25037;49.488;9.900;2023-04-22T05:55:30;12.80;69.40
39325;DHT22;25037;49.488;9.900;2023-04-22T05:57:57;12.90;69.20
39325;DHT22;25037;49.488;9.900;2023-04-22T06:00:24;13.00;69.10
39325;DHT22;25037;49.488;9.900;2023-04-22T06:02:50;13.10;68.90
39325;DHT22;25037;49.488;9.900;2023-04-22T06:05:17;13.20;68.70
39325;DHT22;25037;49.488;9.900;2023-04-22T06:07:44;13.30;68.50
39325;DHT22;25037;49.488;9.900;2023-04-22T06:10:11;13.50;68.30
39325;DHT22;25037;49.488;9.900;2023-04-22T06:12:37;13.70;68.10
39325;DHT22;25037;49.488;9.900;2023-04-22T06:15:04;13.80;67.80
39325;DHT22;25037;49.488;9.900;2023-04-22T06:17:31;14.00;67.60
39325;DHT22;25037;49.488;9.900;2023-04-22T06:19:58;14.00;67.30
39325;DHT22;25037;49.488;9.900;2023-04-22T06:22:25;14.10;67.20
39325;DHT22;25037;49.488;9.900;2023-04-22T06:24:51;14.30;67.00
39325;DHT22;25037;49.488;9.900;2023-04-22T06:27:18;14.40;66.90
39325;DHT22;25037;49.488;9.900;2023-04-22T06:29:45;14.50;66.70
39325;DHT22;25037;49.488;9.900;2023-04-22T06:32:11;14.70;66.50
39325;DHT22;25037;49.488;9.900;2023-04-22T06:34:38;14.80;66.40
39325;DHT22;25037;49.488;9.900;2023-04-22T06:37:05;14.90;66.20
39325;DHT22;25037;49.488;9.900;2023-04-22T06:39:31;15.10;66.00
39325;DHT22;25037;49.488;9.900;2023-04-22T06:41:58;15.20;65.80
39325;DHT22;25037;49.488;9.900;2023-04-22T06:44:25;15.50;65.40
39325;DHT22;25037;49.488;9.900;2023-04-22T06:46:51;15.60;65.10
39325;DHT22;25037;49.488;9.900;2023-04-22T06:49:20;15.70;64.70
39325;DHT22;25037;49.488;9.900;2023-04-22T06:51:47;16.00;64.50
39325;DHT22;25037;49.488;9.900;2023-04-22T06:54:13;16.10;64.20
39325;DHT22;25037;49.488;9.900;2023-04-22T06:56:40;16.30;64.00
39325;DHT22;25037;49.488;9.900;2023-04-22T06:59:07;16.50;63.50
39325;DHT22;25037;49.488;9.900;2023-04-22T07:01:34;16.70;63.20
39325;DHT22;25037;49.488;9.900;2023-04-22T07:04:00;16.80;63.10
39325;DHT22;25037;49.488;9.900;2023-04-22T07:06:27;17.00;63.00
39325;DHT22;25037;49.488;9.900;2023-04-22T07:08:54;17.20;62.70
39325;DHT22;25037;49.488;9.900;2023-04-22T07:11:21;17.30;62.20
39325;DHT22;25037;49.488;9.900;2023-04-22T07:13:47;17.60;62.10
39325;DHT22;25037;49.488;9.900;2023-04-22T07:16:14;17.80;61.80
39325;DHT22;25037;49.488;9.900;2023-04-22T07:18:41;17.90;61.30
39325;DHT22;25037;49.488;9.900;2023-04-22T07:21:07;18.20;60.90
39325;DHT22;25037;49.488;9.900;2023-04-22T07:23:34;18.30;60.60
39325;DHT22;25037;49.488;9.900;2023-04-22T07:26:01;18.50;60.30
39325;DHT22;25037;49.488;9.900;2023-04-22T07:28:28;18.70;59.70
39325;DHT22;25037;49.488;9.900;2023-04-22T07:30:55;18.80;59.20
39325;DHT22;25037;49.488;9.900;2023-04-22T07:33:22;19.10;58.80
39325;DHT22;25037;49.488;9.900;2023-04-22T07:35:49;19.30;58.30
39325;DHT22;25037;49.488;9.900;2023-04-22T07:38:15;19.50;57.60
39325;DHT22;25037;49.488;9.900;2023-04-22T07:40:43;19.70;56.50
39325;DHT22;25037;49.488;9.900;2023-04-22T07:43:09;20.00;55.80
39325;DHT22;25037;49.488;9.900;2023-04-22T07:45:36;20.30;55.00
39325;DHT22;25037;49.488;9.900;2023-04-22T07:48:03;20.50;54.20
39325;DHT22;25037;49.488;9.900;2023-04-22T07:50:30;20.70;53.70
39325;DHT22;25037;49.488;9.900;2023-04-22T07:52:57;21.00;53.00
39325;DHT22;25037;49.488;9.900;2023-04-22T07:55:23;21.20;52.40
39325;DHT22;25037;49.488;9.900;2023-04-22T07:57:50;21.40;51.60
39325;DHT22;25037;49.488;9.900;2023-04-22T08:00:17;21.60;50.90
39325;DHT22;25037;49.488;9.900;2023-04-22T08:02:43;21.80;50.70
39325;DHT22;25037;49.488;9.900;2023-04-22T08:05:11;22.10;50.60
39325;DHT22;25037;49.488;9.900;2023-04-22T08:07:38;22.40;49.90
39325;DHT22;25037;49.488;9.900;2023-04-22T08:10:06;22.70;49.30
39325;DHT22;25037;49.488;9.900;2023-04-22T08:12:32;22.90;48.20
39325;DHT22;25037;49.488;9.900;2023-04-22T08:14:59;23.00;48.10
39325;DHT22;25037;49.488;9.900;2023-04-22T08:17:26;23.10;47.90
39325;DHT22;25037;49.488;9.900;2023-04-22T08:19:53;23.20;47.50
39325;DHT22;25037;49.488;9.900;2023-04-22T08:22:20;23.40;46.90
39325;DHT22;25037;49.488;9.900;2023-04-22T08:24:46;23.60;46.70
39325;DHT22;25037;49.488;9.900;2023-04-22T08:27:13;23.70;46.20
39325;DHT22;25037;49.488;9.900;2023-04-22T08:29:39;23.90;45.70
39325;DHT22;25037;49.488;9.900;2023-04-22T08:32:07;24.10;45.50
39325;DHT22;25037;49.488;9.900;2023-04-22T08:34:34;24.20;45.20
39325;DHT22;25037;49.488;9.900;2023-04-22T08:37:01;24.30;44.60
39325;DHT22;25037;49.488;9.900;2023-04-22T08:39:28;24.50;44.40
39325;DHT22;25037;49.488;9.900;2023-04-22T08:41:55;24.50;44.00
39325;DHT22;25037;49.488;9.900;2023-04-22T08:44:23;24.70;43.70
39325;DHT22;25037;49.488;9.900;2023-04-22T08:46:51;24.70;43.60
39325;DHT22;25037;49.488;9.900;2023-04-22T08:49:18;24.80;43.20
39325;DHT22;25037;49.488;9.900;2023-04-22T08:51:45;25.00;43.10
39325;DHT22;25037;49.488;9.900;2023-04-22T08:54:12;25.20;42.80
39325;DHT22;25037;49.488;9.900;2023-04-22T08:56:42;25.30;42.50
39325;DHT22;25037;49.488;9.900;2023-04-22T08:59:12;25.50;42.10
39325;DHT22;25037;49.488;9.900;2023-04-22T09:01:39;25.70;41.40
39325;DHT22;25037;49.488;9.900;2023-04-22T09:04:09;25.80;41.40
39325;DHT22;25037;49.488;9.900;2023-04-22T09:06:37;26.00;40.90
39325;DHT22;25037;49.488;9.900;2023-04-22T09:09:04;26.10;40.40
39325;DHT22;25037;49.488;9.900;2023-04-22T09:11:31;26.20;40.20
39325;DHT22;25037;49.488;9.900;2023-04-22T09:13:58;26.30;40.00
39325;DHT22;25037;49.488;9.900;2023-04-22T09:16:25;26.30;39.40
39325;DHT22;25037;49.488;9.900;2023-04-22T09:18:52;26.30;38.70
39325;DHT22;25037;49.488;9.900;2023-04-22T09:21:19;26.30;38.40
39325;DHT22;25037;49.488;9.900;2023-04-22T09:23:51;26.40;38.00
39325;DHT22;25037;49.488;9.900;2023-04-22T09:26:22;26.50;37.40
39325;DHT22;25037;49.488;9.900;2023-04-22T09:28:57;26.70;37.40
39325;DHT22;25037;49.488;9.900;2023-04-22T09:31:25;26.80;37.20
39325;DHT22;25037;49.488;9.900;2023-04-22T09:33:59;26.80;37.30
39325;DHT22;25037;49.488;9.900;2023-04-22T09:36:27;27.00;36.70
39325;DHT22;25037;49.488;9.900;2023-04-22T09:39:02;27.00;37.10
39325;DHT22;25037;49.488;9.900;2023-04-22T09:41:39;27.00;36.90
39325;DHT22;25037;49.488;9.900;2023-04-22T09:44:14;26.90;36.80
39325;DHT22;25037;49.488;9.900;2023-04-22T09:46:42;26.90;36.30
39325;DHT22;25037;49.488;9.900;2023-04-22T09:49:09;26.90;36.30
39325;DHT22;25037;49.488;9.900;2023-04-22T09:51:40;27.00;36.10
39325;DHT22;25037;49.488;9.900;2023-04-22T09:54:09;27.00;35.80
39325;DHT22;25037;49.488;9.900;2023-04-22T09:59:11;27.00;35.60
39325;DHT22;25037;49.488;9.900;2023-04-22T10:01:38;27.10;35.90
39325;DHT22;25037;49.488;9.900;2023-04-22T10:04:08;27.10;35.80
39325;DHT22;25037;49.488;9.900;2023-04-22T10:06:36;27.10;35.50
39325;DHT22;25037;49.488;9.900;2023-04-22T10:09:03;27.20;35.40
39325;DHT22;25037;49.488;9.900;2023-04-22T10:11:32;27.20;35.90
39325;DHT22;25037;49.488;9.900;2023-04-22T10:13:59;27.20;35.50
39325;DHT22;25037;49.488;9.900;2023-04-22T10:16:29;27.30;35.50
39325;DHT22;25037;49.488;9.900;2023-04-22T10:18:58;27.30;35.40
39325;DHT22;25037;49.488;9.900;2023-04-22T10:21:27;27.40;35.60
39325;DHT22;25037;49.488;9.900;2023-04-22T10:23:57;27.40;35.60
39325;DHT22;25037;49.488;9.900;2023-04-22T10:29:18;27.70;35.30
39325;DHT22;25037;49.488;9.900;2023-04-22T10:31:58;27.70;34.80
39325;DHT22;25037;49.488;9.900;2023-04-22T10:34:29;27.80;34.60
39325;DHT22;25037;49.488;9.900;2023-04-22T10:37:00;27.80;34.50
39325;DHT22;25037;49.488;9.900;2023-04-22T10:39:28;27.80;34.30
39325;DHT22;25037;49.488;9.900;2023-04-22T10:44:52;27.70;34.00
39325;DHT22;25037;49.488;9.900;2023-04-22T10:47:36;27.60;34.50
39325;DHT22;25037;49.488;9.900;2023-04-22T10:50:24;27.50;34.20
39325;DHT22;25037;49.488;9.900;2023-04-22T10:52:59;27.50;34.70
39325;DHT22;25037;49.488;9.900;2023-04-22T10:55:48;27.40;34.50
39325;DHT22;25037;49.488;9.900;2023-04-22T10:58:23;27.50;34.80
39325;DHT22;25037;49.488;9.900;2023-04-22T11:00:52;27.40;34.40
39325;DHT22;25037;49.488;9.900;2023-04-22T11:03:27;27.30;34.00
39325;DHT22;25037;49.488;9.900;2023-04-22T11:06:19;27.30;34.30
39325;DHT22;25037;49.488;9.900;2023-04-22T11:08:48;27.40;34.40
39325;DHT22;25037;49.488;9.900;2023-04-22T11:11:18;27.50;34.00
39325;DHT22;25037;49.488;9.900;2023-04-22T11:13:46;27.60;33.60
39325;DHT22;25037;49.488;9.900;2023-04-22T11:16:16;27.60;33.40
39325;DHT22;25037;49.488;9.900;2023-04-22T11:18:46;27.70;33.60
39325;DHT22;25037;49.488;9.900;2023-04-22T11:21:13;27.70;33.10
39325;DHT22;25037;49.488;9.900;2023-04-22T11:23:51;27.70;32.80
39325;DHT22;25037;49.488;9.900;2023-04-22T11:26:32;27.60;32.70
39325;DHT22;25037;49.488;9.900;2023-04-22T11:28:59;27.60;32.80
39325;DHT22;25037;49.488;9.900;2023-04-22T11:31:26;27.70;32.60
39325;DHT22;25037;49.488;9.900;2023-04-22T11:33:53;27.70;32.60
39325;DHT22;25037;49.488;9.900;2023-04-22T11:36:23;27.70;32.50
39325;DHT22;25037;49.488;9.900;2023-04-22T11:38:54;27.80;32.40
39325;DHT22;25037;49.488;9.900;2023-04-22T11:41:21;27.90;32.00
39325;DHT22;25037;49.488;9.900;2023-04-22T11:43:51;28.10;31.70
39325;DHT22;25037;49.488;9.900;2023-04-22T11:46:30;28.10;31.90
39325;DHT22;25037;49.488;9.900;2023-04-22T11:49:13;28.20;32.00
39325;DHT22;25037;49.488;9.900;2023-04-22T11:51:54;28.30;31.90
39325;DHT22;25037;49.488;9.900;2023-04-22T11:54:35;28.30;31.60
39325;DHT22;25037;49.488;9.900;2023-04-22T11:57:07;28.20;31.60
39325;DHT22;25037;49.488;9.900;2023-04-22T11:59:34;28.20;31.50
39325;DHT22;25037;49.488;9.900;2023-04-22T12:02:05;28.20;32.60
39325;DHT22;25037;49.488;9.900;2023-04-22T12:04:38;28.30;31.90
39325;DHT22;25037;49.488;9.900;2023-04-22T12:07:06;28.50;31.80
39325;DHT22;25037;49.488;9.900;2023-04-22T12:09:33;28.60;31.50
39325;DHT22;25037;49.488;9.900;2023-04-22T12:12:02;28.60;31.40
39325;DHT22;25037;49.488;9.900;2023-04-22T12:14:33;28.60;31.20
39325;DHT22;25037;49.488;9.900;2023-04-22T12:17:04;28.50;30.90
39325;DHT22;25037;49.488;9.900;2023-04-22T12:19:31;28.40;31.30
39325;DHT22;25037;49.488;9.900;2023-04-22T12:21:58;28.30;31.60
39325;DHT22;25037;49.488;9.900;2023-04-22T12:24:28;28.30;31.30
39325;DHT22;25037;49.488;9.900;2023-04-22T12:26:55;28.20;31.20
39325;DHT22;25037;49.488;9.900;2023-04-22T12:29:28;28.00;31.50
39325;DHT22;25037;49.488;9.900;2023-04-22T12:31:55;27.90;31.60
39325;DHT22;25037;49.488;9.900;2023-04-22T12:34:22;27.80;31.90
39325;DHT22;25037;49.488;9.900;2023-04-22T12:36:49;27.80;31.50
39325;DHT22;25037;49.488;9.900;2023-04-22T12:39:15;27.70;31.10
39325;DHT22;25037;49.488;9.900;2023-04-22T12:41:42;27.50;31.10
39325;DHT22;25037;49.488;9.900;2023-04-22T12:44:09;27.50;31.20
39325;DHT22;25037;49.488;9.900;2023-04-22T12:46:36;27.50;31.20
39325;DHT22;25037;49.488;9.900;2023-04-22T12:49:03;27.60;31.30
39325;DHT22;25037;49.488;9.900;2023-04-22T12:51:29;27.70;31.00
39325;DHT22;25037;49.488;9.900;2023-04-22T12:53:58;27.70;31.00
39325;DHT22;25037;49.488;9.900;2023-04-22T12:56:24;27.70;30.90
39325;DHT22;25037;49.488;9.900;2023-04-22T12:58:51;27.80;30.40
39325;DHT22;25037;49.488;9.900;2023-04-22T13:01:18;27.70;30.10
39325;DHT22;25037;49.488;9.900;2023-04-22T13:03:45;27.70;30.50
39325;DHT22;25037;49.488;9.900;2023-04-22T13:06:12;27.70;30.40
39325;DHT22;25037;49.488;9.900;2023-04-22T13:08:40;27.80;30.40
39325;DHT22;25037;49.488;9.900;2023-04-22T13:11:06;27.80;30.40
39325;DHT22;25037;49.488;9.900;2023-04-22T13:13:33;27.90;30.50
39325;DHT22;25037;49.488;9.900;2023-04-22T13:16:00;27.90;30.10
39325;DHT22;25037;49.488;9.900;2023-04-22T13:18:27;27.80;30.20
39325;DHT22;25037;49.488;9.900;2023-04-22T13:20:54;27.80;30.20
39325;DHT22;25037;49.488;9.900;2023-04-22T13:23:24;27.80;30.10
39325;DHT22;25037;49.488;9.900;2023-04-22T13:25:52;27.80;30.30
39325;DHT22;25037;49.488;9.900;2023-04-22T13:28:19;28.00;30.30
39325;DHT22;25037;49.488;9.900;2023-04-22T13:30:45;28.10;30.30
39325;DHT22;25037;49.488;9.900;2023-04-22T13:33:12;28.20;30.20
39325;DHT22;25037;49.488;9.900;2023-04-22T13:35:39;28.20;30.30
39325;DHT22;25037;49.488;9.900;2023-04-22T13:38:05;28.20;30.50
39325;DHT22;25037;49.488;9.900;2023-04-22T13:40:32;28.10;30.20
39325;DHT22;25037;49.488;9.900;2023-04-22T13:42:59;28.00;30.40
39325;DHT22;25037;49.488;9.900;2023-04-22T13:45:26;27.70;30.60
39325;DHT22;25037;49.488;9.900;2023-04-22T13:47:53;27.50;30.60
39325;DHT22;25037;49.488;9.900;2023-04-22T13:50:20;27.30;31.00
39325;DHT22;25037;49.488;9.900;2023-04-22T13:52:46;27.10;31.50
39325;DHT22;25037;49.488;9.900;2023-04-22T13:55:13;26.90;31.60
39325;DHT22;25037;49.488;9.900;2023-04-22T13:57:40;26.80;31.80
39325;DHT22;25037;49.488;9.900;2023-04-22T14:00:07;26.70;32.00
39325;DHT22;25037;49.488;9.900;2023-04-22T14:02:34;26.70;32.00
39325;DHT22;25037;49.488;9.900;2023-04-22T14:05:02;26.70;31.90
39325;DHT22;25037;49.488;9.900;2023-04-22T14:07:29;26.70;31.70
39325;DHT22;25037;49.488;9.900;2023-04-22T14:09:56;26.70;31.80
39325;DHT22;25037;49.488;9.900;2023-04-22T14:12:22;26.70;31.70
39325;DHT22;25037;49.488;9.900;2023-04-22T14:14:49;26.70;32.00
39325;DHT22;25037;49.488;9.900;2023-04-22T14:17:15;26.70;32.30
39325;DHT22;25037;49.488;9.900;2023-04-22T14:19:42;26.70;32.30
39325;DHT22;25037;49.488;9.900;2023-04-22T14:22:10;26.70;32.40
39325;DHT22;25037;49.488;9.900;2023-04-22T14:24:36;26.60;32.50
39325;DHT22;25037;49.488;9.900;2023-04-22T14:27:03;26.60;32.50
39325;DHT22;25037;49.488;9.900;2023-04-22T14:29:30;26.60;32.50
39325;DHT22;25037;49.488;9.900;2023-04-22T14:31:57;26.50;32.80
39325;DHT22;25037;49.488;9.900;2023-04-22T14:34:25;26.50;32.80
39325;DHT22;25037;49.488;9.900;2023-04-22T14:36:52;26.40;33.00
39325;DHT22;25037;49.488;9.900;2023-04-22T14:39:19;26.30;33.10
39325;DHT22;25037;49.488;9.900;2023-04-22T14:41:47;26.30;33.20
39325;DHT22;25037;49.488;9.900;2023-04-22T14:44:13;26.20;33.20
39325;DHT22;25037;49.488;9.900;2023-04-22T14:46:40;26.10;33.20
39325;DHT22;25037;49.488;9.900;2023-04-22T14:49:07;26.10;33.20
39325;DHT22;25037;49.488;9.900;2023-04-22T14:51:33;26.00;33.40
39325;DHT22;25037;49.488;9.900;2023-04-22T14:54:01;25.90;33.70
39325;DHT22;25037;49.488;9.900;2023-04-22T14:56:28;25.80;33.80
39325;DHT22;25037;49.488;9.900;2023-04-22T14:58:56;25.70;34.00
39325;DHT22;25037;49.488;9.900;2023-04-22T15:01:22;25.70;34.10
39325;DHT22;25037;49.488;9.900;2023-04-22T15:03:49;25.70;34.20
39325;DHT22;25037;49.488;9.900;2023-04-22T15:06:17;25.60;34.40
39325;DHT22;25037;49.488;9.900;2023-04-22T15:08:44;25.60;34.30
39325;DHT22;25037;49.488;9.900;2023-04-22T15:11:11;25.70;34.30
39325;DHT22;25037;49.488;9.900;2023-04-22T15:13:37;25.60;34.30
39325;DHT22;25037;49.488;9.900;2023-04-22T15:16:04;25.60;34.60
39325;DHT22;25037;49.488;9.900;2023-04-22T15:18:31;25.60;34.80
39325;DHT22;25037;49.488;9.900;2023-04-22T15:20:58;25.60;35.00
39325;DHT22;25037;49.488;9.900;2023-04-22T15:23:24;25.60;35.00
39325;DHT22;25037;49.488;9.900;2023-04-22T15:25:51;25.70;35.10
39325;DHT22;25037;49.488;9.900;2023-04-22T15:28:18;25.70;35.10
39325;DHT22;25037;49.488;9.900;2023-04-22T15:30:44;25.70;35.00
39325;DHT22;25037;49.488;9.900;2023-04-22T15:33:11;25.70;35.20
39325;DHT22;25037;49.488;9.900;2023-04-22T15:35:38;25.70;34.90
39325;DHT22;25037;49.488;9.900;2023-04-22T15:38:05;25.70;34.70
39325;DHT22;25037;49.488;9.900;2023-04-22T15:40:32;25.80;34.80
39325;DHT22;25037;49.488;9.900;2023-04-22T15:42:59;25.80;34.80